Time;durP1;ratioP1;P1;durP2;ratioP2;P2;SDS_P1;SDS_P2;PMS_P1;PMS_P2;Temp;Humidity;BMP_temperature;BMP_pressure;BME280_temperature;BME280_humidity;BME280_pressure;Samples;Min_cycle;Max_cycle;Signal;HPM_P1;HPM_P2
2022/04/12 00:00:25;;;;;;;4.38;2.28;;;6.60;99.90;;;;;;4953102;28;20045;-78
2022/04/12 00:02:51;;;;;;;3.53;2.63;;;6.60;99.90;;;;;;4951921;28;20121;-78
2022/04/12 00:05:18;;;;;;;3.50;2.65;;;6.70;99.90;;;;;;4942128;29;20577;-78
2022/04/12 00:07:44;;;;;;;6.00;2.75;;;6.60;99.90;;;;;;4937600;29;20055;-78
2022/04/12 00:10:12;;;;;;;4.15;2.45;;;6.60;99.90;;;;;;4952460;29;20046;-78
2022/04/12 00:12:37;;;;;;;4.47;2.42;;;6.50;99.90;;;;;;4952431;29;20362;-78
2022/04/12 00:15:08;;;;;;;4.07;2.70;;;6.50;99.90;;;;;;4944376;29;20127;-78
2022/04/12 00:20:20;;;;;;;4.93;2.65;;;6.40;99.90;;;;;;4968728;28;20117;-78
2022/04/12 00:22:46;;;;;;;4.68;2.67;;;6.40;99.90;;;;;;4936290;29;20081;-78
2022/04/12 00:25:12;;;;;;;6.15;2.78;;;6.40;99.90;;;;;;4951937;29;20083;-78
2022/04/12 00:27:39;;;;;;;5.70;2.65;;;6.40;99.90;;;;;;4952267;29;20043;-78
2022/04/12 00:30:06;;;;;;;4.05;2.60;;;6.40;99.90;;;;;;4941540;28;20083;-77
2022/04/12 00:32:33;;;;;;;5.65;2.80;;;6.40;99.90;;;;;;4951297;29;20043;-78
2022/04/12 00:34:59;;;;;;;5.70;3.28;;;6.40;99.90;;;;;;4950854;28;20047;-78
2022/04/12 00:37:25;;;;;;;;;;;6.40;99.90;;;;;;4952156;29;20055;-78
2022/04/12 00:39:51;;;;;;;4.93;2.83;;;6.40;99.90;;;;;;4950282;29;20277;-78
2022/04/12 00:42:17;;;;;;;4.75;3.30;;;6.40;99.90;;;;;;4951190;29;20113;-78
2022/04/12 00:44:42;;;;;;;5.80;3.10;;;6.40;99.90;;;;;;4934850;29;20137;-78
2022/04/12 00:47:08;;;;;;;6.78;3.13;;;6.40;99.90;;;;;;4951503;29;20475;-78
2022/04/12 00:49:34;;;;;;;5.85;3.17;;;6.40;99.90;;;;;;4932438;29;20058;-78
2022/04/12 00:52:00;;;;;;;5.35;3.22;;;6.40;99.90;;;;;;4951350;29;20163;-78
2022/04/12 00:54:26;;;;;;;3.92;2.97;;;6.40;99.90;;;;;;4949498;28;20061;-78
2022/04/12 00:56:52;;;;;;;5.53;3.50;;;6.40;99.90;;;;;;4934923;28;20482;-78
2022/04/12 00:59:18;;;;;;;;;;;6.40;99.90;;;;;;4945593;28;20065;-78
2022/04/12 01:01:44;;;;;;;6.07;3.40;;;6.40;99.90;;;;;;4966766;28;20072;-78
2022/04/12 01:04:10;;;;;;;4.25;3.20;;;6.40;99.90;;;;;;4950020;28;20118;-79
2022/04/12 01:06:36;;;;;;;6.13;3.53;;;6.50;99.90;;;;;;4950611;29;20234;-79
2022/04/12 01:09:05;;;;;;;7.63;3.80;;;6.50;99.90;;;;;;4950021;28;20051;-79
2022/04/12 01:11:34;;;;;;;7.15;3.65;;;6.50;99.90;;;;;;4950522;28;20047;-79
2022/04/12 01:14:01;;;;;;;5.22;3.50;;;6.50;99.90;;;;;;4949807;29;20047;-79
2022/04/12 01:16:27;;;;;;;;;;;6.40;99.90;;;;;;4949738;28;20040;-79
2022/04/12 01:18:52;;;;;;;6.63;3.78;;;6.40;99.90;;;;;;4948008;29;19928;-79
2022/04/12 01:21:19;;;;;;;7.55;4.03;;;6.40;99.90;;;;;;4950309;29;20061;-79
2022/04/12 01:24:05;;;;;;;5.85;3.53;;;6.40;99.90;;;;;;4949667;28;20047;-78
2022/04/12 01:26:30;;;;;;;6.57;4.07;;;6.40;99.90;;;;;;4950173;29;20054;-78
2022/04/12 01:28:56;;;;;;;5.35;3.42;;;6.40;99.90;;;;;;4950340;28;20035;-78
2022/04/12 01:31:26;;;;;;;6.53;4.00;;;6.30;99.90;;;;;;4932690;29;20598;-78
2022/04/12 01:33:52;;;;;;;6.90;4.03;;;6.40;99.90;;;;;;4950587;29;20093;-78
2022/04/12 01:36:19;;;;;;;;;;;6.30;99.90;;;;;;4966855;28;20063;-77
2022/04/12 01:38:45;;;;;;;8.30;3.80;;;6.30;99.90;;;;;;4930411;29;19923;-79
2022/04/12 01:41:11;;;;;;;4.78;3.33;;;6.30;99.90;;;;;;4950488;29;20043;-78
2022/04/12 01:43:36;;;;;;;5.40;3.80;;;6.30;99.90;;;;;;4950298;29;20049;-78
2022/04/12 01:46:03;;;;;;;6.13;4.25;;;6.20;99.90;;;;;;4950784;29;20499;-79
2022/04/12 01:48:28;;;;;;;5.05;3.83;;;6.30;99.90;;;;;;4950472;29;20043;-79
2022/04/12 01:50:54;;;;;;;4.75;3.58;;;6.30;99.90;;;;;;4950299;28;20549;-79
2022/04/12 01:53:20;;;;;;;6.97;3.97;;;6.20;99.90;;;;;;4934930;29;20055;-78
2022/04/12 01:55:46;;;;;;;7.07;4.25;;;6.30;99.90;;;;;;4950698;29;20046;-78
2022/04/12 01:58:12;;;;;;;5.78;4.10;;;6.20;99.90;;;;;;4950292;29;20398;-72
2022/04/12 02:00:37;;;;;;;6.88;4.30;;;6.20;99.90;;;;;;4948292;28;20109;-72
2022/04/12 02:03:04;;;;;;;7.22;4.57;;;6.20;99.90;;;;;;4932059;29;20065;-72
2022/04/12 02:05:29;;;;;;;;;;;6.20;99.90;;;;;;4945193;29;20644;-73
2022/04/12 02:07:55;;;;;;;7.03;4.47;;;6.20;99.90;;;;;;4945325;29;19926;-72
2022/04/12 02:10:22;;;;;;;6.75;3.90;;;6.10;99.90;;;;;;4949471;29;20082;-72
2022/04/12 02:12:49;;;;;;;6.97;4.35;;;6.10;99.90;;;;;;4947809;29;20051;-72
2022/04/12 02:15:15;;;;;;;9.13;4.80;;;6.10;99.90;;;;;;4948327;28;20043;-72
2022/04/12 02:17:40;;;;;;;6.55;4.55;;;6.10;99.90;;;;;;4949429;29;20491;-72
2022/04/12 02:20:07;;;;;;;7.28;4.35;;;6.10;99.90;;;;;;4945002;28;20043;-72
2022/04/12 02:22:32;;;;;;;7.07;4.80;;;6.00;99.90;;;;;;4934373;29;20376;-72
2022/04/12 02:24:58;;;;;;;8.52;5.10;;;6.00;99.90;;;;;;4943648;29;20055;-72
2022/04/12 02:27:24;;;;;;;7.40;4.82;;;6.10;99.90;;;;;;4942872;29;20123;-72
2022/04/12 02:29:49;;;;;;;6.97;4.47;;;6.10;99.90;;;;;;4953482;28;20102;-72
2022/04/12 02:32:15;;;;;;;6.90;4.68;;;6.00;99.90;;;;;;4937613;29;20039;-71
2022/04/12 02:34:41;;;;;;;10.02;5.10;;;6.00;99.90;;;;;;4937927;29;20039;-71
2022/04/12 02:37:06;;;;;;;6.90;4.93;;;6.00;99.90;;;;;;4937315;29;20047;-71
2022/04/12 02:39:32;;;;;;;7.75;5.30;;;6.00;99.90;;;;;;4953036;29;20130;-72
2022/04/12 02:42:04;;;;;;;11.00;5.53;;;6.00;99.90;;;;;;4953609;29;20454;-71
2022/04/12 02:44:29;;;;;;;8.13;4.93;;;6.00;99.90;;;;;;4953285;29;20455;-71
2022/04/12 02:46:55;;;;;;;9.48;5.00;;;6.00;99.90;;;;;;4952632;29;20084;-72
2022/04/12 02:49:20;;;;;;;8.38;5.28;;;6.00;99.90;;;;;;4937713;29;20079;-71
2022/04/12 02:51:46;;;;;;;8.60;5.38;;;5.90;99.90;;;;;;4953244;29;20122;-71
2022/04/12 02:54:13;;;;;;;10.13;5.82;;;5.90;99.90;;;;;;4953728;28;20039;-71
2022/04/12 02:56:38;;;;;;;7.82;5.38;;;5.90;99.90;;;;;;4953367;29;20058;-72
2022/04/12 02:59:04;;;;;;;9.02;5.95;;;5.90;99.90;;;;;;4953300;29;20359;-71
2022/04/12 03:01:30;;;;;;;7.40;5.28;;;5.90;99.90;;;;;;4952603;28;20043;-72
2022/04/12 03:03:56;;;;;;;7.82;5.38;;;5.90;99.90;;;;;;4947080;28;20046;-72
2022/04/12 03:06:21;;;;;;;7.45;5.47;;;5.90;99.90;;;;;;4949689;29;20043;-72
2022/04/12 03:08:47;;;;;;;7.83;5.20;;;5.90;99.90;;;;;;4948012;28;20078;-72
2022/04/12 03:11:13;;;;;;;8.52;5.25;;;5.90;99.90;;;;;;4946418;29;20043;-72
2022/04/12 03:13:39;;;;;;;7.55;5.43;;;5.80;99.90;;;;;;4952974;28;20163;-72
2022/04/12 03:16:04;;;;;;;7.65;5.00;;;5.80;99.90;;;;;;4937019;29;20031;-72
2022/04/12 03:18:30;;;;;;;9.02;6.15;;;5.80;99.90;;;;;;4953196;29;20047;-72
2022/04/12 03:20:56;;;;;;;9.07;6.10;;;5.80;99.90;;;;;;4937142;29;20054;-72
2022/04/12 03:23:22;;;;;;;8.85;6.00;;;5.90;99.90;;;;;;4937474;29;20054;-73
2022/04/12 03:25:50;;;;;;;10.60;6.75;;;5.80;99.90;;;;;;4953494;29;20056;-72
2022/04/12 03:28:16;;;;;;;8.93;6.22;;;5.80;99.90;;;;;;4952321;29;20050;-72
2022/04/12 03:30:41;;;;;;;9.38;6.80;;;5.80;99.90;;;;;;4952454;28;20130;-72
2022/04/12 03:33:07;;;;;;;9.43;6.72;;;5.80;99.90;;;;;;4952567;29;20178;-73
2022/04/12 03:35:33;;;;;;;10.02;6.53;;;5.80;99.90;;;;;;4952801;29;20055;-72
2022/04/12 03:38:01;;;;;;;10.85;6.88;;;5.80;99.90;;;;;;4952948;28;20051;-72
2022/04/12 03:40:31;;;;;;;12.77;7.38;;;5.80;99.90;;;;;;4952797;29;20078;-73
2022/04/12 03:43:05;;;;;;;10.68;7.35;;;5.80;99.90;;;;;;4952825;28;20341;-72
2022/04/12 03:45:32;;;;;;;11.77;7.55;;;5.90;99.90;;;;;;4935967;29;20046;-72
2022/04/12 03:47:59;;;;;;;10.48;7.72;;;5.90;99.90;;;;;;4951628;28;20039;-72
2022/04/12 03:50:25;;;;;;;11.55;7.93;;;5.90;99.90;;;;;;4936209;29;20048;-71
2022/04/12 03:52:52;;;;;;;11.65;7.80;;;5.90;99.90;;;;;;4952336;29;20192;-72
2022/04/12 03:55:30;;;;;;;14.38;8.65;;;5.90;99.90;;;;;;4951687;28;20039;-71
2022/04/12 03:58:01;;;;;;;11.07;8.02;;;6.00;99.90;;;;;;4951315;28;20497;-71
2022/04/12 04:00:27;;;;;;;13.27;8.30;;;6.00;99.90;;;;;;4942746;29;20370;-71
2022/04/12 04:02:53;;;;;;;12.57;8.77;;;6.00;99.90;;;;;;4950949;28;20035;-72
2022/04/12 04:05:19;;;;;;;11.73;8.85;;;5.90;99.90;;;;;;4934391;29;20122;-72
2022/04/12 04:07:45;;;;;;;14.07;9.38;;;6.00;99.90;;;;;;4952140;28;20138;-72
2022/04/12 04:10:10;;;;;;;11.87;8.40;;;5.90;99.90;;;;;;4952173;28;20589;-72
2022/04/12 04:12:36;;;;;;;16.35;10.20;;;5.90;99.90;;;;;;4936648;29;20295;-71
2022/04/12 04:15:05;;;;;;;14.98;9.38;;;6.00;99.90;;;;;;4957440;28;20047;-72
2022/04/12 04:17:31;;;;;;;12.38;9.32;;;6.00;99.90;;;;;;4941961;29;20039;-72
2022/04/12 04:19:57;;;;;;;13.85;9.70;;;6.00;99.90;;;;;;4952006;29;20043;-72
2022/04/12 04:22:23;;;;;;;12.15;8.50;;;6.00;99.90;;;;;;4950616;28;20503;-73
2022/04/12 04:24:49;;;;;;;10.70;8.27;;;6.00;99.90;;;;;;4952602;29;20094;-72
2022/04/12 04:27:16;;;;;;;12.35;8.02;;;6.00;99.90;;;;;;4951905;29;20062;-72
2022/04/12 04:29:42;;;;;;;11.48;8.55;;;6.00;99.90;;;;;;4950687;28;20055;-72
2022/04/12 04:32:08;;;;;;;9.13;7.50;;;6.00;99.90;;;;;;4950864;28;20047;-72
2022/04/12 04:34:34;;;;;;;14.27;8.93;;;6.00;99.90;;;;;;4935771;29;20054;-73
2022/04/12 04:36:59;;;;;;;15.63;8.53;;;5.90;99.90;;;;;;4957901;28;20514;-72
2022/04/12 04:39:25;;;;;;;12.55;8.68;;;5.90;99.90;;;;;;4956915;28;20286;-71
2022/04/12 04:41:51;;;;;;;11.10;8.40;;;5.90;99.90;;;;;;4928281;29;20047;-71
2022/04/12 04:44:17;;;;;;;12.55;8.43;;;5.90;99.90;;;;;;4968029;28;20283;-72
2022/04/12 04:46:42;;;;;;;11.05;7.70;;;5.90;99.90;;;;;;4934980;28;20121;-72
2022/04/12 04:49:08;;;;;;;10.30;7.55;;;5.80;99.90;;;;;;4951562;28;20062;-72
2022/04/12 04:51:36;;;;;;;11.15;7.32;;;5.80;99.90;;;;;;4967110;28;20051;-71
2022/04/12 04:54:02;;;;;;;11.43;7.90;;;5.80;99.90;;;;;;4932397;29;20187;-72
2022/04/12 04:56:28;;;;;;;11.13;7.63;;;5.80;99.90;;;;;;4919889;28;20123;-71
2022/04/12 04:58:54;;;;;;;12.60;7.47;;;5.90;99.90;;;;;;4935532;28;20406;-71
2022/04/12 05:01:20;;;;;;;10.45;7.50;;;5.80;99.90;;;;;;4948997;29;20058;-71
2022/04/12 05:03:47;;;;;;;11.90;7.55;;;5.80;99.90;;;;;;4942957;28;20054;-72
2022/04/12 05:06:14;;;;;;;11.32;7.63;;;5.80;99.90;;;;;;4935271;29;20043;-72
2022/04/12 05:08:40;;;;;;;12.05;7.15;;;5.80;99.90;;;;;;4951402;29;20055;-72
2022/04/12 05:11:05;;;;;;;14.38;8.02;;;5.80;99.90;;;;;;4951302;29;20114;-72
2022/04/12 05:13:31;;;;;;;9.43;7.13;;;5.80;99.90;;;;;;4951460;28;20134;-73
2022/04/12 05:15:57;;;;;;;10.05;7.38;;;5.80;99.90;;;;;;4951653;28;20479;-72
2022/04/12 05:18:22;;;;;;;8.90;7.27;;;5.80;99.90;;;;;;4951474;29;20050;-73
2022/04/12 05:20:49;;;;;;;9.43;7.47;;;5.80;99.90;;;;;;4951684;29;20294;-73
2022/04/12 05:23:15;;;;;;;9.82;7.00;;;5.80;99.90;;;;;;4933602;29;20054;-73
2022/04/12 05:25:41;;;;;;;10.80;7.88;;;5.90;99.90;;;;;;4933650;28;20058;-73
2022/04/12 05:28:07;;;;;;;10.10;6.97;;;6.00;99.90;;;;;;4950199;28;20114;-74
2022/04/12 05:30:33;;;;;;;12.35;7.57;;;6.00;99.90;;;;;;4949556;29;20204;-73
2022/04/12 05:32:59;;;;;;;12.15;7.70;;;6.10;99.90;;;;;;4929069;29;20051;-74
2022/04/12 05:35:24;;;;;;;12.18;7.43;;;6.20;99.90;;;;;;4950965;29;20373;-74
2022/04/12 05:37:52;;;;;;;10.57;7.47;;;6.30;99.90;;;;;;4950902;29;20059;-74
2022/04/12 05:40:21;;;;;;;11.75;7.97;;;6.30;99.90;;;;;;4933518;29;20110;-74
2022/04/12 05:42:47;;;;;;;16.23;7.88;;;6.50;99.90;;;;;;4950196;29;20134;-72
2022/04/12 05:45:14;;;;;;;10.38;7.35;;;6.50;99.90;;;;;;4949404;28;20067;-73
2022/04/12 05:47:58;;;;;;;10.30;7.68;;;6.60;99.90;;;;;;4950515;29;20047;-71
2022/04/12 05:50:26;;;;;;;12.55;8.05;;;6.70;99.90;;;;;;4949009;28;20487;-71
2022/04/12 05:52:53;;;;;;;11.85;7.95;;;6.80;99.90;;;;;;4948934;29;20078;-72
2022/04/12 05:55:22;;;;;;;10.40;7.35;;;6.90;99.90;;;;;;4933493;29;20126;-71
2022/04/12 05:58:03;;;;;;;13.90;8.15;;;7.00;99.90;;;;;;4949851;29;20360;-72
2022/04/12 06:00:30;;;;;;;11.70;8.02;;;7.00;99.90;;;;;;4947564;28;20055;-71
2022/04/12 06:02:57;;;;;;;13.40;7.80;;;7.00;99.90;;;;;;4936323;29;20455;-71
2022/04/12 06:05:24;;;;;;;10.70;7.60;;;7.00;99.90;;;;;;4935604;29;20039;-71
2022/04/12 06:07:51;;;;;;;10.75;8.20;;;7.00;99.90;;;;;;4937083;29;20125;-72
2022/04/12 06:10:18;;;;;;;;;;;7.00;99.90;;;;;;4953468;28;20050;-71
2022/04/12 06:12:43;;;;;;;10.65;7.85;;;7.00;99.90;;;;;;4948123;29;20278;-71
2022/04/12 06:15:09;;;;;;;10.82;8.07;;;7.10;99.90;;;;;;4964534;28;20035;-71
2022/04/12 06:17:36;;;;;;;10.88;7.97;;;7.10;99.90;;;;;;4940683;28;20051;-71
2022/04/12 06:20:05;;;;;;;9.50;7.55;;;7.10;99.90;;;;;;4936633;29;20483;-71
2022/04/12 06:22:32;;;;;;;11.48;7.63;;;7.20;99.90;;;;;;4949981;28;20051;-71
2022/04/12 06:24:58;;;;;;;14.32;8.07;;;7.30;99.90;;;;;;4951346;28;20118;-71
2022/04/12 06:27:30;;;;;;;;;;;7.40;99.90;;;;;;4950983;29;21416;-71
2022/04/12 06:29:56;;;;;;;11.27;7.72;;;7.50;99.90;;;;;;4950807;28;19961;-70
2022/04/12 06:32:22;;;;;;;11.55;8.40;;;7.60;99.90;;;;;;4953459;28;20513;-71
2022/04/12 06:34:47;;;;;;;10.43;7.82;;;7.70;99.90;;;;;;4930790;29;20054;-71
2022/04/12 06:37:13;;;;;;;10.95;8.50;;;7.80;99.90;;;;;;4938852;28;20172;-71
2022/04/12 06:39:38;;;;;;;10.85;7.85;;;7.80;99.90;;;;;;4938119;29;20089;-71
2022/04/12 06:42:05;;;;;;;10.77;8.32;;;7.90;99.90;;;;;;4952079;28;20058;-71
2022/04/12 06:44:32;;;;;;;10.93;7.38;;;8.00;99.90;;;;;;4935854;29;20059;-71
2022/04/12 06:46:58;;;;;;;11.13;7.13;;;8.10;99.90;;;;;;4939932;28;20057;-71
2022/04/12 06:49:24;;;;;;;12.70;8.05;;;8.20;99.90;;;;;;4941689;28;20039;-71
2022/04/12 06:51:49;;;;;;;10.35;7.75;;;8.20;99.90;;;;;;4936973;28;20098;-71
2022/04/12 06:54:15;;;;;;;13.38;8.48;;;8.30;99.90;;;;;;4952810;29;20049;-71
2022/04/12 06:56:41;;;;;;;13.70;8.60;;;8.30;99.90;;;;;;4934334;29;20035;-70
2022/04/12 06:59:06;;;;;;;11.82;8.00;;;8.30;99.90;;;;;;4952900;28;20237;-70
2022/04/12 07:01:32;;;;;;;10.65;7.78;;;8.30;99.90;;;;;;4939610;29;20446;-70
2022/04/12 07:03:58;;;;;;;10.60;7.82;;;8.40;99.90;;;;;;4940096;29;20039;-71
2022/04/12 07:06:23;;;;;;;12.55;8.30;;;8.40;99.90;;;;;;4957589;28;20154;-71
2022/04/12 07:08:49;;;;;;;10.60;8.07;;;8.40;99.90;;;;;;4968823;28;20530;-71
2022/04/12 07:11:20;;;;;;;10.15;7.40;;;8.50;99.90;;;;;;4944467;29;20103;-70
2022/04/12 07:13:46;;;;;;;9.60;7.25;;;8.50;99.90;;;;;;4946588;28;20395;-71
2022/04/12 07:16:12;;;;;;;9.95;7.80;;;8.50;99.90;;;;;;4952310;29;20031;-71
2022/04/12 07:18:38;;;;;;;11.23;8.27;;;8.60;99.90;;;;;;4952276;29;20126;-71
2022/04/12 07:21:03;;;;;;;10.32;7.82;;;8.60;99.90;;;;;;4938275;29;20043;-71
2022/04/12 07:23:29;;;;;;;9.82;7.15;;;8.70;99.90;;;;;;4969137;28;20101;-71
2022/04/12 07:25:55;;;;;;;11.90;8.20;;;8.80;99.90;;;;;;4948211;29;20117;-71
2022/04/12 07:28:20;;;;;;;12.15;8.38;;;9.00;99.90;;;;;;4950482;28;20043;-72
2022/04/12 07:30:46;;;;;;;10.63;7.57;;;9.30;99.90;;;;;;4933592;29;20046;-72
2022/04/12 07:33:12;;;;;;;10.18;7.60;;;9.60;99.90;;;;;;4956821;28;20146;-72
2022/04/12 07:35:37;;;;;;;9.48;7.28;;;9.90;99.90;;;;;;4931303;28;20042;-71
2022/04/12 07:38:03;;;;;;;9.93;7.00;;;10.10;99.90;;;;;;4948798;29;20047;-71
2022/04/12 07:40:29;;;;;;;9.45;6.80;;;10.30;99.90;;;;;;4940647;28;20078;-71
2022/04/12 07:42:55;;;;;;;11.05;7.47;;;10.50;99.90;;;;;;4949083;29;20468;-71
2022/04/12 07:45:22;;;;;;;9.90;7.10;;;10.80;99.90;;;;;;4948978;28;20047;-71
2022/04/12 07:47:48;;;;;;;12.82;7.30;;;10.90;99.90;;;;;;4930141;29;20407;-71
2022/04/12 07:50:14;;;;;;;9.35;7.10;;;11.10;99.90;;;;;;4938355;29;20043;-71
2022/04/12 07:52:41;;;;;;;9.85;7.63;;;11.20;99.90;;;;;;4951017;28;20031;-72
2022/04/12 07:55:07;;;;;;;8.60;6.93;;;11.30;99.90;;;;;;4947991;28;20102;-71
2022/04/12 07:57:32;;;;;;;9.63;6.88;;;11.40;99.90;;;;;;4966892;28;20043;-71
2022/04/12 07:59:58;;;;;;;9.63;7.45;;;11.60;99.90;;;;;;4932647;29;20084;-71
2022/04/12 08:02:24;;;;;;;9.77;7.45;;;11.70;99.90;;;;;;4949664;28;20058;-71
2022/04/12 08:04:49;;;;;;;10.40;7.20;;;11.80;99.90;;;;;;4947429;28;20121;-72
2022/04/12 08:07:15;;;;;;;10.35;6.80;;;11.90;98.70;;;;;;4933218;29;20042;-72
2022/04/12 08:09:41;;;;;;;9.32;7.25;;;12.00;99.70;;;;;;4946167;28;20616;-72
2022/04/12 08:12:07;;;;;;;8.77;6.38;;;12.00;99.30;;;;;;4951549;28;20043;-72
2022/04/12 08:14:32;;;;;;;10.68;7.43;;;12.00;99.10;;;;;;4952096;28;20487;-71
2022/04/12 08:16:58;;;;;;;10.23;7.13;;;11.90;99.20;;;;;;4934219;29;20122;-72
2022/04/12 08:19:24;;;;;;;10.32;7.00;;;11.90;98.50;;;;;;4947581;29;20044;-72
2022/04/12 08:21:49;;;;;;;9.80;6.85;;;12.10;98.60;;;;;;4950497;28;20043;-72
2022/04/12 08:24:15;;;;;;;9.82;6.88;;;12.20;98.30;;;;;;4948949;28;20074;-71
2022/04/12 08:26:41;;;;;;;7.78;6.63;;;12.30;98.40;;;;;;4949056;28;20141;-71
2022/04/12 08:29:07;;;;;;;9.57;7.32;;;12.50;98.40;;;;;;4953140;28;20045;-71
2022/04/12 08:31:32;;;;;;;8.75;6.85;;;12.40;97.10;;;;;;4918817;29;20825;-71
2022/04/12 08:33:58;;;;;;;9.88;7.50;;;12.60;97.20;;;;;;4924381;29;20031;-71
2022/04/12 08:36:25;;;;;;;10.30;7.35;;;12.60;96.90;;;;;;4944081;28;20043;-72
2022/04/12 08:38:51;;;;;;;8.68;6.55;;;12.70;96.70;;;;;;4947829;28;20114;-71
2022/04/12 08:41:21;;;;;;;8.45;6.75;;;12.80;96.50;;;;;;4948660;29;20043;-80
2022/04/12 08:43:52;;;;;;;9.95;7.13;;;12.90;96.70;;;;;;4929676;29;20497;-80
2022/04/12 08:46:18;;;;;;;10.85;7.28;;;13.00;96.50;;;;;;4953018;28;20079;-80
2022/04/12 08:48:44;;;;;;;9.80;6.78;;;12.90;96.30;;;;;;4943553;28;20074;-79
2022/04/12 08:51:10;;;;;;;10.13;7.53;;;12.90;96.30;;;;;;4950061;28;20046;-79
2022/04/12 08:53:36;;;;;;;9.95;7.05;;;12.80;96.10;;;;;;4934485;29;21018;-79
2022/04/12 08:56:02;;;;;;;9.73;6.53;;;12.80;96.30;;;;;;4957681;28;20129;-80
2022/04/12 08:58:28;;;;;;;8.65;7.10;;;13.00;96.70;;;;;;4933424;29;20152;-79
2022/04/12 09:00:55;;;;;;;10.75;7.55;;;13.20;96.20;;;;;;4933967;29;20063;-79
2022/04/12 09:03:20;;;;;;;8.88;7.40;;;13.10;95.50;;;;;;4944165;28;20047;-79
2022/04/12 09:05:46;;;;;;;8.85;6.72;;;13.20;95.70;;;;;;4934556;28;20118;-80
2022/04/12 09:08:25;;;;;;;11.45;7.07;;;13.20;95.70;;;;;;4950056;28;20097;-71
2022/04/12 09:11:02;;;;;;;8.60;6.93;;;13.30;95.70;;;;;;4930274;28;20039;-72
2022/04/12 09:13:28;;;;;;;8.85;6.85;;;13.30;95.40;;;;;;4950238;28;20118;-71
2022/04/12 09:15:54;;;;;;;12.40;7.85;;;13.50;95.90;;;;;;4939259;28;20039;-71
2022/04/12 09:18:40;;;;;;;;;;;13.50;94.40;;;;;;4946756;28;21982;-72
2022/04/12 09:21:13;;;;;;;9.60;7.30;;;13.70;94.70;;;;;;4948362;28;19926;-70
2022/04/12 09:23:44;;;;;;;11.32;6.75;;;13.70;94.50;;;;;;4945296;28;20383;-71
2022/04/12 09:26:15;;;;;;;9.55;7.18;;;13.80;94.80;;;;;;4966725;28;20406;-71
2022/04/12 09:28:42;;;;;;;8.55;6.88;;;14.00;94.40;;;;;;4949340;28;20035;-71
2022/04/12 09:31:15;;;;;;;8.73;6.45;;;14.20;94.10;;;;;;4949227;28;20051;-72
2022/04/12 09:33:43;;;;;;;7.43;6.35;;;14.60;94.50;;;;;;4948190;28;20065;-72
2022/04/12 09:36:09;;;;;;;9.73;7.05;;;14.80;93.70;;;;;;4943979;28;20039;-72
2022/04/12 09:38:37;;;;;;;9.05;6.90;;;15.00;92.70;;;;;;4948656;28;20046;-72
2022/04/12 09:41:18;;;;;;;9.82;7.18;;;15.10;92.80;;;;;;4929629;29;20061;-72
2022/04/12 09:44:08;;;;;;;7.63;6.28;;;15.20;92.80;;;;;;4947036;28;20051;-71
2022/04/12 09:46:38;;;;;;;10.18;6.80;;;15.30;93.20;;;;;;4963152;28;20051;-71
2022/04/12 09:49:05;;;;;;;9.35;6.72;;;15.60;93.10;;;;;;4930338;29;20143;-71
2022/04/12 09:51:36;;;;;;;9.88;6.70;;;15.80;92.30;;;;;;4940952;29;20440;-71
2022/04/12 09:54:02;;;;;;;10.02;7.28;;;15.90;92.10;;;;;;4941162;28;20046;-71
2022/04/12 09:56:29;;;;;;;9.85;6.80;;;15.90;92.20;;;;;;4947902;28;20384;-71
2022/04/12 09:59:00;;;;;;;8.40;6.50;;;15.80;92.00;;;;;;4947980;28;20056;-71
2022/04/12 10:01:27;;;;;;;8.50;6.80;;;16.00;92.20;;;;;;4948806;28;20495;-72
2022/04/12 10:03:57;;;;;;;7.97;6.25;;;16.00;92.10;;;;;;4933236;29;20047;-71
2022/04/12 10:06:28;;;;;;;9.38;6.57;;;16.20;92.80;;;;;;4943065;28;20080;-72
2022/04/12 10:08:54;;;;;;;7.95;6.50;;;16.10;92.10;;;;;;4947831;28;20043;-71
2022/04/12 10:11:21;;;;;;;10.63;6.82;;;16.10;92.50;;;;;;4946817;28;20043;-71
2022/04/12 10:13:48;;;;;;;11.27;7.28;;;16.10;92.30;;;;;;4948288;28;20039;-71
2022/04/12 10:16:19;;;;;;;8.40;6.78;;;16.10;92.20;;;;;;4941729;28;20525;-72
2022/04/12 10:18:46;;;;;;;8.05;6.15;;;16.10;92.10;;;;;;4942177;28;20040;-71
2022/04/12 10:21:13;;;;;;;8.00;6.28;;;16.30;92.50;;;;;;4943359;28;20558;-71
2022/04/12 10:23:42;;;;;;;9.65;6.20;;;16.40;92.30;;;;;;4930376;29;20119;-72
2022/04/12 10:26:10;;;;;;;8.60;6.50;;;16.80;92.70;;;;;;4945914;28;20051;-72
2022/04/12 10:28:37;;;;;;;7.60;5.30;;;17.00;92.40;;;;;;4945060;28;21232;-72
2022/04/12 10:31:24;;;;;;;8.30;6.50;;;17.30;91.90;;;;;;4926939;29;20435;-72
2022/04/12 10:34:02;;;;;;;;;;;17.20;90.30;;;;;;4937499;29;20044;-72
2022/04/12 10:37:05;;;;;;;8.48;6.80;;;17.30;90.90;;;;;;4942093;28;19956;-73
2022/04/12 10:39:36;;;;;;;9.55;6.80;;;17.30;90.50;;;;;;4940694;28;20039;-72
2022/04/12 10:42:09;;;;;;;9.20;6.88;;;17.40;90.20;;;;;;4944807;28;20510;-72
2022/04/12 10:44:37;;;;;;;10.52;7.25;;;17.40;90.10;;;;;;4962718;28;20043;-72
2022/04/12 10:47:02;;;;;;;9.27;6.82;;;17.20;90.00;;;;;;4948224;28;20126;-72
2022/04/12 10:49:35;;;;;;;8.68;6.15;;;17.40;90.50;;;;;;4945898;29;20094;-72
2022/04/12 10:52:01;;;;;;;9.13;6.85;;;17.70;90.70;;;;;;4949358;29;20056;-72
2022/04/12 10:54:33;;;;;;;10.00;6.10;;;17.80;89.40;;;;;;4953266;29;20042;-81
2022/04/12 10:57:22;;;;;;;7.93;6.47;;;18.00;90.10;;;;;;4949459;28;20046;-79
2022/04/12 10:59:52;;;;;;;7.03;6.30;;;18.00;89.40;;;;;;4952525;28;20126;-81
2022/04/12 11:02:18;;;;;;;9.65;6.70;;;18.20;90.30;;;;;;4948582;28;20098;-81
2022/04/12 11:04:43;;;;;;;8.18;6.07;;;18.30;90.00;;;;;;4970550;28;20042;-81
2022/04/12 11:07:26;;;;;;;9.55;6.72;;;18.40;90.20;;;;;;4951829;28;20053;-81
2022/04/12 11:10:13;;;;;;;7.72;6.43;;;18.50;90.00;;;;;;4923805;29;20495;-81
2022/04/12 11:12:43;;;;;;;7.93;6.57;;;18.60;90.10;;;;;;4953425;28;20043;-72
2022/04/12 11:15:37;;;;;;;7.15;6.20;;;18.70;89.10;;;;;;4953078;28;20131;-72
2022/04/12 11:18:14;;;;;;;9.00;6.43;;;18.40;87.00;;;;;;4944865;28;20051;-72
2022/04/12 11:20:48;;;;;;;8.05;5.88;;;18.50;88.00;;;;;;4941018;28;20494;-72
2022/04/12 11:23:15;;;;;;;7.65;5.70;;;18.60;87.50;;;;;;4951430;28;20074;-81
2022/04/12 11:25:51;;;;;;;8.38;6.50;;;18.60;86.70;;;;;;4949765;28;20146;-80
2022/04/12 11:28:24;;;;;;;8.48;6.32;;;18.70;86.20;;;;;;4948579;28;20039;-80
2022/04/12 11:30:58;;;;;;;7.50;6.25;;;18.70;86.00;;;;;;4953708;28;20051;-81
2022/04/12 11:33:28;;;;;;;7.60;6.00;;;18.80;86.10;;;;;;4950685;28;20077;-80
2022/04/12 11:35:57;;;;;;;7.57;6.05;;;19.00;88.00;;;;;;4953962;28;20043;-80
2022/04/12 11:38:24;;;;;;;7.88;6.40;;;18.80;85.90;;;;;;4962745;28;20071;-80
2022/04/12 11:40:51;;;;;;;7.32;6.57;;;18.60;86.20;;;;;;4933072;29;20043;-81
2022/04/12 11:43:25;;;;;;;8.52;7.05;;;18.60;87.60;;;;;;4949817;29;20398;-80
2022/04/12 11:45:58;;;;;;;9.45;6.95;;;18.70;86.80;;;;;;4950189;28;20131;-80
2022/04/12 11:48:30;;;;;;;10.48;7.15;;;18.70;86.70;;;;;;4943862;28;20479;-81
2022/04/12 11:50:57;;;;;;;9.80;6.50;;;18.70;87.20;;;;;;4953916;28;20047;-81
2022/04/12 11:53:25;;;;;;;7.53;5.95;;;18.70;87.70;;;;;;4945033;28;20074;-80
2022/04/12 11:55:50;;;;;;;10.00;7.25;;;18.90;88.20;;;;;;4967765;28;20090;-80
2022/04/12 11:58:19;;;;;;;;;;;18.70;87.60;;;;;;4944622;28;20085;-80
2022/04/12 12:00:45;;;;;;;10.15;7.03;;;18.70;87.70;;;;;;4944628;28;19918;-80
2022/04/12 12:03:15;;;;;;;;;;;18.60;88.30;;;;;;4952059;29;20073;-80
2022/04/12 12:05:41;;;;;;;7.68;6.25;;;18.40;88.40;;;;;;4964968;28;20392;-80
2022/04/12 12:08:06;;;;;;;;;;;18.50;89.40;;;;;;4954959;28;20058;-82
2022/04/12 12:10:32;;;;;;;8.07;6.63;;;18.60;90.00;;;;;;4949026;28;19930;-81
2022/04/12 12:12:58;;;;;;;9.27;7.10;;;18.70;89.20;;;;;;4951688;28;20039;-82
2022/04/12 12:15:23;;;;;;;;;;;18.70;89.30;;;;;;4937176;29;20114;-75
2022/04/12 12:17:51;;;;;;;9.63;6.85;;;18.80;89.70;;;;;;4935063;28;20285;-74
2022/04/12 12:20:18;;;;;;;8.65;6.40;;;18.90;89.00;;;;;;4950973;28;20046;-74
2022/04/12 12:22:46;;;;;;;7.78;6.63;;;18.90;89.60;;;;;;4936748;29;20047;-74
2022/04/12 12:25:18;;;;;;;7.75;6.45;;;18.80;89.30;;;;;;4937146;29;20074;-74
2022/04/12 12:27:52;;;;;;;7.32;5.57;;;18.90;90.00;;;;;;4967527;28;20042;-74
2022/04/12 12:30:21;;;;;;;9.45;6.63;;;19.00;90.00;;;;;;4951985;28;20491;-77
2022/04/12 12:32:52;;;;;;;9.45;7.15;;;19.10;90.10;;;;;;4959377;28;20882;-75
2022/04/12 12:35:18;;;;;;;7.57;6.03;;;19.00;89.10;;;;;;4944548;29;20046;-82
2022/04/12 12:37:45;;;;;;;8.35;6.68;;;19.20;90.00;;;;;;4946943;29;20131;-82
2022/04/12 12:40:21;;;;;;;8.57;6.30;;;19.30;88.50;;;;;;4950232;29;20063;-81
2022/04/12 12:42:49;;;;;;;9.85;6.32;;;19.40;88.20;;;;;;4953507;28;20121;-81
2022/04/12 12:45:20;;;;;;;8.60;6.80;;;19.50;88.40;;;;;;4953459;28;20035;-81
2022/04/12 12:47:49;;;;;;;7.70;5.80;;;19.60;88.40;;;;;;4935069;29;20125;-72
2022/04/12 12:50:17;;;;;;;8.23;6.80;;;19.60;88.30;;;;;;4941066;28;20043;-81
2022/04/12 12:52:44;;;;;;;11.00;7.50;;;19.50;87.40;;;;;;4935453;29;20402;-81
2022/04/12 12:55:19;;;;;;;10.05;7.80;;;19.30;87.20;;;;;;4954300;29;20042;-80
2022/04/12 12:57:48;;;;;;;7.88;6.43;;;19.10;87.00;;;;;;4962859;28;20042;-80